createdAt,value
2022-09-22T00:03:44.535Z,12.57
2022-09-22T00:06:13.853Z,11.98
2022-09-22T00:08:43.051Z,12.48
2022-09-22T00:11:17.194Z,12.75
2022-09-22T00:13:52.512Z,12.30
2022-09-22T00:16:22.808Z,11.18
2022-09-22T00:18:50.032Z,11.18
2022-09-22T00:21:18.860Z,11.93
2022-09-22T00:23:47.177Z,12.23
2022-09-22T00:26:16.676Z,11.98
2022-09-22T00:28:45.256Z,12.00
2022-09-22T00:31:17.758Z,11.27
2022-09-22T00:33:46.338Z,11.15
2022-09-22T00:36:14.643Z,11.23
2022-09-22T00:38:42.180Z,11.13
2022-09-22T00:41:16.639Z,10.98
2022-09-22T00:43:47.104Z,11.02
2022-09-22T00:46:25.912Z,10.70
2022-09-22T00:49:00.978Z,10.53
2022-09-22T00:51:32.208Z,10.18
2022-09-22T00:54:01.103Z,10.70
2022-09-22T00:56:32.163Z,9.82
2022-09-22T00:59:05.604Z,10.45
2022-09-22T01:01:35.470Z,10.18
2022-09-22T01:04:03.182Z,10.50
2022-09-22T01:06:29.922Z,8.90
2022-09-22T01:08:57.218Z,10.40
2022-09-22T01:11:25.174Z,9.23
2022-09-22T01:14:01.327Z,9.57
2022-09-22T01:16:42.997Z,8.50
2022-09-22T01:19:21.276Z,9.38
2022-09-22T01:22:01.269Z,8.77
2022-09-22T01:24:47.776Z,9.25
2022-09-22T01:27:26.365Z,8.93
2022-09-22T01:30:33.249Z,8.70
2022-09-22T01:33:23.587Z,9.05
2022-09-22T01:36:05.450Z,8.55
2022-09-22T01:38:38.942Z,9.43
2022-09-22T01:41:09.701Z,8.52
2022-09-22T01:43:46.275Z,8.65
2022-09-22T01:46:21.830Z,8.57
2022-09-22T01:48:51.308Z,8.45
2022-09-22T01:51:38.252Z,7.85
2022-09-22T01:54:17.474Z,8.07
2022-09-22T01:56:46.937Z,7.63
2022-09-22T01:59:15.787Z,7.82
2022-09-22T02:01:46.419Z,7.63
2022-09-22T02:04:17.050Z,7.72
2022-09-22T02:06:48.019Z,8.25
2022-09-22T02:09:19.951Z,8.05
2022-09-22T02:11:46.794Z,7.50
2022-09-22T02:14:14.040Z,7.40
2022-09-22T02:16:41.105Z,7.50
2022-09-22T02:19:13.933Z,7.60
2022-09-22T02:21:43.383Z,7.75
2022-09-22T02:24:43.422Z,7.63
2022-09-22T02:27:30.254Z,7.35
2022-09-22T02:32:48.696Z,6.95
2022-09-22T02:35:15.998Z,6.78
2022-09-22T02:38:03.675Z,6.88
2022-09-22T02:40:51.869Z,6.82
2022-09-22T02:43:18.711Z,6.85
2022-09-22T02:48:34.674Z,6.10
2022-09-22T02:51:01.671Z,6.60
2022-09-22T02:53:28.422Z,6.82
2022-09-22T02:55:55.216Z,6.45
2022-09-22T02:58:21.928Z,6.40
2022-09-22T03:00:48.652Z,6.25
2022-09-22T03:03:15.384Z,6.60
2022-09-22T03:05:42.165Z,6.28
2022-09-22T03:08:08.931Z,5.75
2022-09-22T03:10:35.872Z,6.10
2022-09-22T03:13:16.083Z,5.60
2022-09-22T03:15:45.103Z,6.18
2022-09-22T03:18:11.869Z,5.88
2022-09-22T03:20:38.631Z,5.80
2022-09-22T03:23:05.591Z,6.13
2022-09-22T03:25:32.307Z,5.65
2022-09-22T03:27:59.041Z,5.63
2022-09-22T03:30:25.778Z,5.60
2022-09-22T03:32:52.534Z,5.88
2022-09-22T03:35:19.292Z,5.75
2022-09-22T03:37:46.459Z,5.22
2022-09-22T03:40:13.663Z,5.47
2022-09-22T03:42:40.424Z,5.03
2022-09-22T03:45:07.596Z,5.40
2022-09-22T03:47:34.300Z,4.95
2022-09-22T03:50:01.008Z,5.20
2022-09-22T03:52:27.743Z,4.57
2022-09-22T03:54:54.474Z,5.70
2022-09-22T03:57:21.256Z,5.25
2022-09-22T03:59:47.998Z,5.10
2022-09-22T04:02:14.725Z,4.90
2022-09-22T04:04:41.612Z,5.22
2022-09-22T04:07:08.867Z,5.20
2022-09-22T04:09:35.840Z,4.93
2022-09-22T04:12:02.635Z,4.57
2022-09-22T04:14:29.965Z,4.80
2022-09-22T04:16:56.870Z,5.13
2022-09-22T04:19:23.817Z,4.53
2022-09-22T04:21:56.145Z,4.47
2022-09-22T04:24:24.490Z,4.95
2022-09-22T04:27:08.476Z,4.30
2022-09-22T04:29:38.252Z,4.65
2022-09-22T04:32:05.394Z,4.30
2022-09-22T04:34:32.111Z,4.80
2022-09-22T04:36:58.919Z,4.60
2022-09-22T04:39:28.464Z,4.40
2022-09-22T04:41:55.532Z,4.45
2022-09-22T04:44:22.320Z,3.95
2022-09-22T04:46:50.201Z,4.20
2022-09-22T04:49:18.055Z,4.68
2022-09-22T04:51:45.070Z,4.30
2022-09-22T04:54:11.839Z,4.30
2022-09-22T04:56:38.768Z,4.25
2022-09-22T04:59:05.558Z,4.05
2022-09-22T05:01:32.433Z,4.30
2022-09-22T05:04:02.569Z,4.03
2022-09-22T05:06:29.378Z,3.85
2022-09-22T05:08:56.738Z,4.00
2022-09-22T05:11:23.684Z,4.18
2022-09-22T05:13:51.117Z,3.90
2022-09-22T05:16:18.313Z,4.18
2022-09-22T05:18:45.200Z,3.58
2022-09-22T05:21:12.073Z,3.83
2022-09-22T05:23:39.643Z,3.88
2022-09-22T05:26:06.750Z,4.03
2022-09-22T05:28:33.529Z,3.95
2022-09-22T05:31:00.375Z,3.53
2022-09-22T05:33:27.107Z,3.63
2022-09-22T05:35:53.886Z,15.35
2022-09-22T05:38:20.594Z,53.45
2022-09-22T05:40:47.374Z,32.13
2022-09-22T05:43:14.445Z,25.42
2022-09-22T05:45:41.184Z,24.55
2022-09-22T05:48:07.984Z,25.38
2022-09-22T05:50:34.715Z,22.63
2022-09-22T05:53:09.483Z,20.15
2022-09-22T05:55:37.882Z,19.55
2022-09-22T05:58:04.828Z,16.33
2022-09-22T06:00:32.307Z,15.13
2022-09-22T06:02:59.086Z,13.32
2022-09-22T06:05:26.120Z,13.27
2022-09-22T06:08:02.781Z,20.02
2022-09-22T06:10:31.198Z,24.40
2022-09-22T06:12:59.459Z,22.73
2022-09-22T06:15:26.736Z,21.05
2022-09-22T06:17:53.492Z,20.42
2022-09-22T06:20:20.321Z,18.75
2022-09-22T06:22:47.348Z,16.42
2022-09-22T06:25:14.064Z,15.70
2022-09-22T06:27:40.790Z,14.32
2022-09-22T06:30:11.352Z,13.38
2022-09-22T06:32:43.709Z,13.85
2022-09-22T06:35:10.891Z,12.15
2022-09-22T06:37:38.526Z,11.95
2022-09-22T06:40:08.289Z,11.10
2022-09-22T06:42:35.656Z,11.38
2022-09-22T06:45:04.526Z,11.40
2022-09-22T06:47:32.870Z,10.13
2022-09-22T06:50:02.258Z,10.55
2022-09-22T06:52:29.034Z,11.63
2022-09-22T06:54:58.583Z,26.63
2022-09-22T06:57:27.934Z,24.38
2022-09-22T06:59:54.738Z,21.00
2022-09-22T07:02:28.142Z,19.65
2022-09-22T07:04:59.016Z,17.05
2022-09-22T07:07:28.146Z,15.20
2022-09-22T07:09:55.312Z,14.88
2022-09-22T07:12:22.516Z,13.35
2022-09-22T07:14:51.115Z,12.98
2022-09-22T07:17:18.514Z,12.18
2022-09-22T07:19:47.073Z,12.30
2022-09-22T07:22:15.652Z,11.05
2022-09-22T07:24:45.732Z,11.88
2022-09-22T07:27:19.963Z,11.35
2022-09-22T07:32:15.658Z,10.40
2022-09-22T07:34:42.354Z,10.48
2022-09-22T07:37:12.098Z,10.98
2022-09-22T07:42:05.587Z,10.35
2022-09-22T07:44:50.732Z,10.60
2022-09-22T07:47:37.393Z,9.93
2022-09-22T07:50:04.722Z,9.70
2022-09-22T07:52:31.440Z,9.02
2022-09-22T07:54:58.142Z,9.07
2022-09-22T07:57:25.156Z,9.07
2022-09-22T07:59:51.913Z,9.07
2022-09-22T08:02:18.856Z,9.00
2022-09-22T08:04:45.639Z,9.00
2022-09-22T08:07:13.179Z,10.57
2022-09-22T08:09:40.776Z,10.38
2022-09-22T08:12:07.611Z,10.13
2022-09-22T08:14:34.345Z,10.30
2022-09-22T08:17:01.061Z,9.60
2022-09-22T08:19:28.308Z,9.23
2022-09-22T08:21:55.111Z,10.02
2022-09-22T08:24:22.867Z,9.77
2022-09-22T08:26:52.410Z,9.30
2022-09-22T08:29:19.440Z,9.77
2022-09-22T08:31:46.996Z,9.73
2022-09-22T08:34:16.708Z,9.95
2022-09-22T08:36:47.488Z,9.18
2022-09-22T08:39:15.313Z,9.82
2022-09-22T08:42:05.872Z,9.05
2022-09-22T08:44:41.728Z,8.98
2022-09-22T08:47:16.908Z,9.60
2022-09-22T08:50:05.840Z,9.23
2022-09-22T08:52:48.784Z,8.60
2022-09-22T08:55:21.055Z,8.68
2022-09-22T08:57:56.353Z,8.52
2022-09-22T09:00:24.838Z,8.65
2022-09-22T09:03:15.057Z,7.95
2022-09-22T09:06:04.221Z,8.55
2022-09-22T09:09:00.132Z,7.82
2022-09-22T09:11:32.393Z,7.65
2022-09-22T09:17:03.717Z,7.50
2022-09-22T09:19:39.288Z,7.93
2022-09-22T09:22:28.088Z,6.97
2022-09-22T09:25:24.647Z,8.32
2022-09-22T09:27:57.138Z,6.70
2022-09-22T09:30:24.138Z,6.88
2022-09-22T09:32:53.794Z,6.50
2022-09-22T09:35:45.363Z,7.47
2022-09-22T09:38:15.165Z,6.63
2022-09-22T09:43:10.365Z,6.80
2022-09-22T09:45:42.961Z,6.32
2022-09-22T09:48:34.052Z,6.50
2022-09-22T09:51:05.357Z,5.97
2022-09-22T09:53:40.857Z,5.88
2022-09-22T09:56:26.319Z,5.63
2022-09-22T09:59:19.992Z,6.47
2022-09-22T10:01:48.575Z,5.72
2022-09-22T10:04:28.645Z,5.40
2022-09-22T10:07:15.180Z,5.38
2022-09-22T10:09:42.905Z,5.90
2022-09-22T10:12:21.195Z,4.75
2022-09-22T10:14:52.618Z,5.78
2022-09-22T10:17:22.780Z,4.68
2022-09-22T10:19:50.796Z,5.80
2022-09-22T10:22:27.419Z,5.32
2022-09-22T10:25:00.403Z,5.68
2022-09-22T10:27:29.545Z,5.40
2022-09-22T10:30:12.773Z,4.40
2022-09-22T10:32:41.248Z,5.25
2022-09-22T10:35:27.403Z,5.03
2022-09-22T10:37:57.452Z,5.57
2022-09-22T10:40:25.441Z,5.15
2022-09-22T10:45:43.041Z,4.65
2022-09-22T10:48:28.744Z,4.70
2022-09-22T10:51:21.916Z,4.57
2022-09-22T10:53:56.590Z,5.15
2022-09-22T10:56:34.021Z,5.07
2022-09-22T10:59:44.958Z,4.75
2022-09-22T11:02:39.356Z,4.70
2022-09-22T11:05:43.139Z,4.93
2022-09-22T11:08:39.035Z,4.22
2022-09-22T11:11:39.690Z,4.47
2022-09-22T11:14:32.023Z,4.93
2022-09-22T11:17:19.808Z,4.88
2022-09-22T11:19:56.072Z,4.22
2022-09-22T11:22:51.345Z,4.60
2022-09-22T11:25:49.468Z,4.22
2022-09-22T11:28:39.202Z,4.60
2022-09-22T11:31:05.972Z,4.15
2022-09-22T11:33:58.136Z,4.60
2022-09-22T11:37:00.068Z,4.50
2022-09-22T11:39:29.541Z,3.80
2022-09-22T11:42:18.252Z,4.05
2022-09-22T11:44:53.932Z,3.97
2022-09-22T11:47:39.704Z,4.30
2022-09-22T11:50:41.243Z,4.30
2022-09-22T11:53:26.565Z,4.03
2022-09-22T11:56:23.105Z,4.05
2022-09-22T11:58:52.599Z,4.00
2022-09-22T12:01:23.166Z,4.07
2022-09-22T12:03:53.772Z,4.35
2022-09-22T12:06:24.900Z,4.03
2022-09-22T12:11:28.204Z,3.53
2022-09-22T12:13:56.137Z,4.43
2022-09-22T12:16:51.077Z,3.45
2022-09-22T12:19:24.426Z,4.57
2022-09-22T12:22:10.385Z,4.10
2022-09-22T12:24:37.344Z,4.50
2022-09-22T12:27:12.164Z,4.40
2022-09-22T12:29:38.980Z,4.28
2022-09-22T12:32:06.061Z,4.18
2022-09-22T12:34:39.144Z,4.47
2022-09-22T12:37:14.508Z,4.53
2022-09-22T12:39:47.086Z,4.63
2022-09-22T12:42:33.943Z,4.22
2022-09-22T12:45:20.458Z,4.53
2022-09-22T12:47:52.307Z,4.20
2022-09-22T12:50:24.779Z,4.07
2022-09-22T12:52:51.638Z,3.83
2022-09-22T12:55:28.865Z,4.30
2022-09-22T12:57:59.587Z,4.72
2022-09-22T13:00:37.440Z,4.13
2022-09-22T13:03:26.996Z,4.03
2022-09-22T13:08:31.112Z,4.40
2022-09-22T13:11:02.992Z,3.90
2022-09-22T13:13:29.686Z,3.97
2022-09-22T13:15:59.767Z,3.85
2022-09-22T13:18:42.982Z,4.10
2022-09-22T13:21:13.800Z,3.83
2022-09-22T13:23:55.262Z,3.50
2022-09-22T13:26:26.844Z,3.97
2022-09-22T13:29:22.508Z,3.65
2022-09-22T13:31:54.437Z,3.53
2022-09-22T13:34:28.632Z,3.97
2022-09-22T13:37:07.896Z,3.63
2022-09-22T13:39:47.193Z,3.90
2022-09-22T13:42:33.410Z,3.80
2022-09-22T13:45:19.003Z,4.10
2022-09-22T13:47:46.906Z,3.47
2022-09-22T13:50:22.043Z,3.72
2022-09-22T13:52:51.184Z,3.30
2022-09-22T13:55:24.472Z,3.95
2022-09-22T13:57:51.830Z,3.55
2022-09-22T14:00:55.128Z,3.22
2022-09-22T14:03:23.700Z,3.33
2022-09-22T14:05:53.922Z,3.28
2022-09-22T14:08:28.601Z,3.80
2022-09-22T14:10:56.452Z,3.17
2022-09-22T14:13:48.371Z,3.45
2022-09-22T14:16:24.327Z,3.50
2022-09-22T14:21:52.830Z,2.83
2022-09-22T14:24:19.836Z,3.50
2022-09-22T14:26:52.602Z,3.20
2022-09-22T14:29:30.757Z,3.30
2022-09-22T14:32:12.657Z,3.30
2022-09-22T14:34:40.321Z,3.00
2022-09-22T14:37:34.345Z,2.88
2022-09-22T14:40:04.210Z,3.00
2022-09-22T14:42:32.662Z,2.78
2022-09-22T14:45:27.522Z,2.75
2022-09-22T14:48:18.410Z,2.60
2022-09-22T14:50:58.187Z,2.88
2022-09-22T14:53:34.584Z,2.92
2022-09-22T14:56:12.064Z,2.75
2022-09-22T14:58:41.160Z,2.47
2022-09-22T15:01:51.071Z,3.00
2022-09-22T15:04:26.387Z,2.83
2022-09-22T15:06:56.418Z,2.72
2022-09-22T15:09:36.335Z,2.88
2022-09-22T15:12:04.290Z,2.30
2022-09-22T15:14:40.604Z,2.55
2022-09-22T15:17:54.807Z,2.88
2022-09-22T15:20:42.731Z,2.63
2022-09-22T15:23:41.873Z,2.60
2022-09-22T15:26:34.776Z,2.50
2022-09-22T15:29:02.673Z,2.67
2022-09-22T15:31:29.908Z,2.55
2022-09-22T15:34:00.184Z,2.30
2022-09-22T15:36:32.904Z,2.38
2022-09-22T15:39:08.168Z,2.20
2022-09-22T15:41:34.980Z,1.92
2022-09-22T15:44:02.798Z,2.40
2022-09-22T15:46:33.950Z,2.65
2022-09-22T15:49:14.959Z,2.42
2022-09-22T15:51:41.663Z,2.38
2022-09-22T15:54:15.936Z,2.33
2022-09-22T15:56:43.376Z,2.88
2022-09-22T15:59:16.676Z,2.25
2022-09-22T16:01:44.185Z,1.92
2022-09-22T16:04:11.193Z,2.00
2022-09-22T16:06:39.085Z,2.38
2022-09-22T16:09:05.985Z,2.25
2022-09-22T16:11:32.864Z,2.50
2022-09-22T16:14:03.412Z,2.30
2022-09-22T16:16:32.368Z,2.08
2022-09-22T16:19:00.153Z,2.03
2022-09-22T16:21:29.395Z,2.38
2022-09-22T16:24:00.617Z,2.60
2022-09-22T16:26:31.605Z,2.63
2022-09-22T16:28:58.883Z,3.00
2022-09-22T16:31:28.716Z,3.08
2022-09-22T16:33:57.531Z,12.52
2022-09-22T16:36:26.327Z,11.82
2022-09-22T16:38:53.387Z,9.05
2022-09-22T16:41:20.922Z,7.55
2022-09-22T16:43:48.490Z,6.15
2022-09-22T16:46:28.059Z,5.50
2022-09-22T16:48:56.085Z,5.63
2022-09-22T16:51:22.856Z,5.18
2022-09-22T16:53:52.812Z,4.55
2022-09-22T16:56:24.505Z,4.20
2022-09-22T16:58:51.647Z,3.80
2022-09-22T17:01:20.062Z,3.60
2022-09-22T17:03:49.396Z,3.93
2022-09-22T17:06:18.619Z,3.80
2022-09-22T17:08:45.759Z,3.47
2022-09-22T17:11:13.818Z,3.17
2022-09-22T17:13:43.339Z,3.20
2022-09-22T17:16:24.535Z,3.42
2022-09-22T17:18:52.465Z,3.40
2022-09-22T17:21:21.840Z,3.47
2022-09-22T17:23:53.466Z,2.95
2022-09-22T17:26:21.261Z,3.10
2022-09-22T17:28:50.186Z,3.30
2022-09-22T17:31:16.954Z,3.25
2022-09-22T17:33:51.422Z,2.70
2022-09-22T17:36:21.094Z,2.90
2022-09-22T17:38:50.660Z,2.70
2022-09-22T17:43:48.479Z,2.30
2022-09-22T17:46:16.811Z,2.40
2022-09-22T17:49:02.877Z,2.92
2022-09-22T17:52:01.187Z,78.45
2022-09-22T17:54:47.744Z,88.45
2022-09-22T17:59:57.216Z,46.60
2022-09-22T18:02:28.916Z,36.63
2022-09-22T18:04:56.074Z,32.80
2022-09-22T18:07:24.824Z,28.35
2022-09-22T18:09:52.254Z,26.80
2022-09-22T18:12:21.514Z,24.48
2022-09-22T18:14:50.173Z,23.73
2022-09-22T18:17:27.010Z,22.92
2022-09-22T18:19:57.678Z,21.83
2022-09-22T18:22:26.044Z,20.63
2022-09-22T18:24:57.181Z,18.67
2022-09-22T18:27:26.999Z,36.05
2022-09-22T18:29:58.297Z,151.90
2022-09-22T18:32:26.659Z,102.07
2022-09-22T18:34:54.385Z,81.43
2022-09-22T18:37:22.448Z,65.03
2022-09-22T18:39:50.469Z,54.97
2022-09-22T18:42:25.266Z,47.05
2022-09-22T18:44:52.348Z,41.78
2022-09-22T18:47:21.063Z,39.67
2022-09-22T18:49:49.993Z,37.23
2022-09-22T18:52:19.269Z,35.30
2022-09-22T18:54:46.677Z,35.80
2022-09-22T18:57:13.551Z,32.35
2022-09-22T18:59:40.866Z,30.30
2022-09-22T19:02:11.660Z,27.83
2022-09-22T19:04:39.232Z,25.88
2022-09-22T19:07:24.477Z,25.88
2022-09-22T19:09:52.872Z,26.10
2022-09-22T19:12:21.756Z,25.73
2022-09-22T19:14:50.078Z,101.50
2022-09-22T19:19:46.635Z,77.53
2022-09-22T19:22:13.460Z,51.63
2022-09-22T19:24:41.724Z,55.42
2022-09-22T19:27:09.235Z,49.00
2022-09-22T19:29:36.491Z,40.75
2022-09-22T19:32:04.363Z,40.63
2022-09-22T19:34:31.365Z,40.28
2022-09-22T19:36:58.708Z,36.50
2022-09-22T19:39:26.510Z,34.53
2022-09-22T19:41:54.840Z,34.03
2022-09-22T19:44:22.511Z,32.42
2022-09-22T19:46:49.973Z,31.17
2022-09-22T19:49:17.461Z,30.98
2022-09-22T19:51:44.321Z,29.98
2022-09-22T19:54:11.910Z,28.85
2022-09-22T19:56:38.899Z,28.50
2022-09-22T19:59:08.815Z,27.00
2022-09-22T20:01:41.593Z,27.92
2022-09-22T20:04:19.832Z,27.15
2022-09-22T20:06:48.674Z,25.80
2022-09-22T20:11:49.152Z,25.58
2022-09-22T20:14:22.869Z,25.80
2022-09-22T20:17:08.785Z,25.27
2022-09-22T20:19:40.057Z,23.85
2022-09-22T20:22:18.891Z,22.85
2022-09-22T20:24:57.471Z,23.50
2022-09-22T20:27:29.171Z,22.83
2022-09-22T20:29:57.675Z,22.17
2022-09-22T20:32:25.884Z,23.00
2022-09-22T20:34:54.199Z,21.10
2022-09-22T20:37:21.862Z,21.45
2022-09-22T20:39:48.657Z,21.73
2022-09-22T20:42:15.869Z,21.13
2022-09-22T20:44:42.860Z,21.05
2022-09-22T20:47:20.067Z,21.35
2022-09-22T20:49:50.856Z,20.67
2022-09-22T20:52:20.047Z,19.30
2022-09-22T20:54:47.409Z,19.10
2022-09-22T20:57:14.257Z,20.02
2022-09-22T20:59:41.492Z,19.80
2022-09-22T21:02:10.260Z,19.35
2022-09-22T21:04:37.077Z,18.55
2022-09-22T21:07:03.918Z,19.15
2022-09-22T21:09:49.550Z,17.17
2022-09-22T21:12:20.578Z,18.42
2022-09-22T21:14:47.463Z,17.15
2022-09-22T21:17:15.554Z,17.17
2022-09-22T21:19:43.224Z,17.55
2022-09-22T21:22:10.322Z,16.67
2022-09-22T21:24:37.161Z,17.17
2022-09-22T21:27:04.761Z,17.88
2022-09-22T21:29:31.621Z,16.42
2022-09-22T21:31:59.654Z,17.90
2022-09-22T21:34:26.484Z,29.88
2022-09-22T21:36:53.307Z,26.20
2022-09-22T21:39:20.810Z,22.42
2022-09-22T21:41:47.575Z,21.98
2022-09-22T21:46:42.162Z,18.52
2022-09-22T21:49:09.521Z,18.75
2022-09-22T21:51:42.209Z,17.60
2022-09-22T21:54:32.732Z,17.55
2022-09-22T21:56:59.471Z,16.98
2022-09-22T21:59:26.215Z,17.20
2022-09-22T22:01:53.066Z,16.50
2022-09-22T22:04:20.272Z,15.90
2022-09-22T22:06:47.142Z,15.63
2022-09-22T22:09:15.545Z,16.10
2022-09-22T22:11:56.541Z,15.52
2022-09-22T22:14:25.576Z,30.50
2022-09-22T22:16:54.179Z,33.58
2022-09-22T22:19:22.766Z,29.40
2022-09-22T22:21:51.284Z,24.38
2022-09-22T22:24:24.044Z,24.35
2022-09-22T22:26:57.237Z,21.52
2022-09-22T22:29:26.097Z,20.52
2022-09-22T22:31:53.269Z,19.85
2022-09-22T22:34:22.491Z,19.55
2022-09-22T22:36:49.745Z,17.73
2022-09-22T22:39:16.584Z,18.00
2022-09-22T22:41:43.463Z,18.30
2022-09-22T22:44:12.260Z,18.23
2022-09-22T22:46:39.182Z,18.10
2022-09-22T22:49:08.687Z,16.48
2022-09-22T22:51:36.035Z,15.80
2022-09-22T22:54:02.851Z,17.02
2022-09-22T22:56:32.648Z,14.88
2022-09-22T22:59:00.416Z,15.77
2022-09-22T23:01:30.226Z,14.18
2022-09-22T23:03:59.736Z,15.43
2022-09-22T23:06:43.953Z,15.00
2022-09-22T23:09:14.030Z,15.15
2022-09-22T23:14:11.246Z,14.13
2022-09-22T23:16:40.380Z,13.88
2022-09-22T23:19:08.620Z,13.88
2022-09-22T23:21:36.370Z,14.55
2022-09-22T23:24:04.354Z,13.57
2022-09-22T23:26:32.020Z,12.55
2022-09-22T23:28:59.530Z,13.25
2022-09-22T23:31:26.662Z,13.18
2022-09-22T23:33:54.041Z,12.95
2022-09-22T23:36:23.005Z,13.25
2022-09-22T23:38:54.226Z,12.82
2022-09-22T23:41:21.506Z,12.65
2022-09-22T23:43:48.253Z,13.13
2022-09-22T23:46:15.053Z,12.98
2022-09-22T23:48:41.902Z,12.43
2022-09-22T23:51:09.735Z,12.18
2022-09-22T23:53:37.742Z,11.82
2022-09-22T23:56:05.808Z,12.02
2022-09-22T23:58:33.241Z,12.15
